Time;durP1;ratioP1;P1;durP2;ratioP2;P2;SDS_P1;SDS_P2;PMS_P1;PMS_P2;Temp;Humidity;BMP_temperature;BMP_pressure;BME280_temperature;BME280_humidity;BME280_pressure;Samples;Min_cycle;Max_cycle;Signal;HPM_P1;HPM_P2
2023/02/19 00:01:16;;;;;;;2.92;0.90;;;;;;;;;;6187774;23;20012;-93
2023/02/19 00:03:43;;;;;;;3.58;0.90;;;;;;;;;;6188296;23;20027;-93
2023/02/19 00:06:10;;;;;;;1.60;0.90;;;;;;;;;;6187850;23;20001;-93
2023/02/19 00:08:36;;;;;;;2.00;1.10;;;;;;;;;;6188016;23;20039;-94
2023/02/19 00:11:11;;;;;;;1.58;0.80;;;;;;;;;;6187859;23;20012;-94
2023/02/19 00:13:37;;;;;;;1.67;0.80;;;;;;;;;;6187690;23;20059;-93
2023/02/19 00:16:12;;;;;;;2.95;1.10;;;;;;;;;;6187513;23;20019;-93
2023/02/19 00:18:38;;;;;;;1.50;0.80;;;;;;;;;;6187877;23;20004;-93
2023/02/19 00:21:04;;;;;;;2.22;1.00;;;;;;;;;;6187916;23;20004;-92
2023/02/19 00:23:31;;;;;;;2.05;0.88;;;;;;;;;;6188050;23;20005;-95
2023/02/19 00:25:57;;;;;;;1.52;0.90;;;;;;;;;;6188038;23;20058;-94
2023/02/19 00:28:23;;;;;;;1.55;0.90;;;;;;;;;;6182341;23;20391;-94
2023/02/19 00:30:49;;;;;;;1.00;0.60;;;;;;;;;;6212118;23;20338;-93
2023/02/19 00:33:15;;;;;;;1.33;0.70;;;;;;;;;;6187554;23;20005;-93
2023/02/19 00:35:42;;;;;;;1.98;0.82;;;;;;;;;;6187894;23;20016;-93
2023/02/19 00:38:08;;;;;;;1.27;0.68;;;;;;;;;;6187253;23;20019;-93
2023/02/19 00:40:34;;;;;;;2.00;0.82;;;;;;;;;;6187425;23;20001;-94
2023/02/19 00:46:04;;;;;;;1.88;0.60;;;;;;;;;;6213562;23;20011;-95
2023/02/19 00:51:35;;;;;;;1.50;0.70;;;;;;;;;;6213652;23;20334;-93
2023/02/19 00:54:01;;;;;;;1.77;0.90;;;;;;;;;;6187326;23;19997;-93
2023/02/19 00:56:27;;;;;;;1.45;0.80;;;;;;;;;;6187933;23;20013;-95
2023/02/19 00:58:54;;;;;;;1.50;0.70;;;;;;;;;;6187369;23;20095;-94
2023/02/19 01:01:20;;;;;;;1.17;0.50;;;;;;;;;;6187227;23;20008;-94
2023/02/19 01:03:47;;;;;;;0.90;0.50;;;;;;;;;;6186934;23;20009;-94
2023/02/19 01:06:14;;;;;;;1.02;0.60;;;;;;;;;;6187796;23;20330;-93
2023/02/19 01:08:40;;;;;;;1.92;0.75;;;;;;;;;;6187578;23;20070;-94
2023/02/19 01:11:07;;;;;;;1.63;0.82;;;;;;;;;;6186877;23;20106;-93
2023/02/19 01:13:33;;;;;;;1.90;0.70;;;;;;;;;;6187369;23;20004;-92
2023/02/19 01:16:18;;;;;;;1.38;0.80;;;;;;;;;;6187384;23;20023;-94
2023/02/19 01:18:45;;;;;;;1.60;0.85;;;;;;;;;;6187333;23;20434;-93
2023/02/19 01:21:15;;;;;;;1.00;0.60;;;;;;;;;;6186599;23;20004;-93
2023/02/19 01:23:41;;;;;;;2.28;0.70;;;;;;;;;;6187355;23;20015;-94
2023/02/19 01:26:08;;;;;;;2.70;0.70;;;;;;;;;;6187008;23;20211;-94
2023/02/19 01:28:35;;;;;;;1.48;0.60;;;;;;;;;;6186778;23;20019;-94
2023/02/19 01:31:03;;;;;;;1.48;0.47;;;;;;;;;;6187124;23;20013;-95
2023/02/19 01:33:29;;;;;;;1.27;0.55;;;;;;;;;;6187221;23;20008;-94
2023/02/19 01:35:55;;;;;;;1.52;0.63;;;;;;;;;;6188461;23;20368;-93
2023/02/19 01:38:21;;;;;;;1.48;0.50;;;;;;;;;;6187321;23;20080;-93
2023/02/19 01:40:58;;;;;;;1.05;0.43;;;;;;;;;;6187074;23;20005;-92
2023/02/19 01:43:24;;;;;;;2.08;0.65;;;;;;;;;;6186932;23;20005;-93
2023/02/19 01:45:50;;;;;;;0.82;0.43;;;;;;;;;;6187231;23;20008;-94
2023/02/19 01:48:37;;;;;;;0.63;0.30;;;;;;;;;;6187013;23;20084;-94
2023/02/19 01:51:08;;;;;;;1.35;0.38;;;;;;;;;;6187483;23;20005;-95
2023/02/19 01:53:38;;;;;;;0.73;0.30;;;;;;;;;;6186890;23;20008;-95
2023/02/19 01:56:05;;;;;;;1.83;0.50;;;;;;;;;;6187293;23;20429;-94
2023/02/19 01:58:33;;;;;;;0.47;0.20;;;;;;;;;;6187858;23;20012;-94
2023/02/19 02:01:00;;;;;;;0.95;0.40;;;;;;;;;;6187445;23;20008;-95
2023/02/19 02:03:26;;;;;;;0.63;0.30;;;;;;;;;;6187677;23;20084;-93
2023/02/19 02:06:00;;;;;;;0.85;0.40;;;;;;;;;;6187124;23;20008;-95
2023/02/19 02:11:11;;;;;;;1.00;0.40;;;;;;;;;;6213779;23;19946;-92
2023/02/19 02:13:38;;;;;;;0.77;0.40;;;;;;;;;;6189450;23;20095;-93
2023/02/19 02:16:13;;;;;;;1.25;0.47;;;;;;;;;;6190555;23;20024;-92
2023/02/19 02:18:58;;;;;;;0.80;0.30;;;;;;;;;;6189711;23;20012;-94
2023/02/19 02:21:24;;;;;;;0.80;0.32;;;;;;;;;;6189947;23;20028;-93
2023/02/19 02:24:06;;;;;;;1.17;0.50;;;;;;;;;;6189561;23;20028;-94
2023/02/19 02:26:38;;;;;;;0.65;0.30;;;;;;;;;;6187805;23;20005;-95
2023/02/19 02:29:23;;;;;;;1.35;0.38;;;;;;;;;;6186525;23;20025;-93
2023/02/19 02:31:53;;;;;;;0.65;0.25;;;;;;;;;;6187112;23;20005;-94
2023/02/19 02:34:34;;;;;;;0.50;0.22;;;;;;;;;;6187721;23;20084;-93
2023/02/19 02:37:00;;;;;;;0.75;0.20;;;;;;;;;;6188934;23;20005;-94
2023/02/19 02:39:27;;;;;;;0.73;0.40;;;;;;;;;;6188756;23;20023;-94
2023/02/19 02:47:41;;;;;;;0.80;0.30;;;;;;;;;;6215508;23;20396;-94
2023/02/19 02:50:08;;;;;;;0.93;0.30;;;;;;;;;;6188749;23;20008;-95
2023/02/19 02:55:22;;;;;;;0.43;0.20;;;;;;;;;;6215773;23;20070;-93
2023/02/19 02:57:48;;;;;;;0.43;0.20;;;;;;;;;;6188498;23;20211;-94
2023/02/19 03:00:14;;;;;;;0.52;0.20;;;;;;;;;;6188525;23;20056;-94
2023/02/19 03:02:41;;;;;;;0.88;0.30;;;;;;;;;;6188295;23;20337;-94
2023/02/19 03:08:09;;;;;;;0.55;0.10;;;;;;;;;;6214466;23;20398;-94
2023/02/19 03:10:41;;;;;;;0.57;0.20;;;;;;;;;;6188291;23;20080;-94
2023/02/19 03:29:51;;;;;;;0.60;0.30;;;;;;;;;;6184439;23;20072;-94
2023/02/19 03:32:26;;;;;;;0.68;0.30;;;;;;;;;;6158687;23;20005;-93
2023/02/19 03:34:55;;;;;;;1.08;0.35;;;;;;;;;;6158255;23;20016;-92
2023/02/19 03:37:24;;;;;;;0.70;0.30;;;;;;;;;;6158434;23;20001;-94
2023/02/19 03:39:50;;;;;;;1.30;0.55;;;;;;;;;;6158501;23;20032;-92
2023/02/19 03:42:36;;;;;;;0.52;0.28;;;;;;;;;;6158468;23;20029;-94
2023/02/19 03:45:20;;;;;;;0.98;0.40;;;;;;;;;;6158210;23;20001;-94
2023/02/19 03:47:54;;;;;;;1.45;0.50;;;;;;;;;;6158468;23;20087;-93
2023/02/19 03:50:27;;;;;;;1.25;0.50;;;;;;;;;;6158678;23;20005;-94
2023/02/19 03:53:04;;;;;;;2.63;0.60;;;;;;;;;;6158868;23;20064;-92
2023/02/19 03:55:39;;;;;;;1.73;0.88;;;;;;;;;;6158376;23;20091;-93
2023/02/19 03:58:24;;;;;;;1.55;0.68;;;;;;;;;;6158192;23;20009;-95
2023/02/19 04:00:57;;;;;;;4.60;2.75;;;;;;;;;;6157968;23;20260;-93
2023/02/19 04:03:28;;;;;;;2.97;1.52;;;;;;;;;;6158398;23;20034;-95
2023/02/19 04:06:02;;;;;;;2.25;0.90;;;;;;;;;;6184629;23;20005;-93
2023/02/19 04:08:29;;;;;;;2.42;0.65;;;;;;;;;;6157780;23;20005;-93
2023/02/19 04:10:58;;;;;;;1.70;0.50;;;;;;;;;;6157628;23;20009;-94
2023/02/19 04:13:30;;;;;;;1.55;0.50;;;;;;;;;;6157909;23;20434;-94
2023/02/19 04:15:57;;;;;;;0.90;0.30;;;;;;;;;;6157619;23;20013;-94
2023/02/19 04:18:26;;;;;;;0.95;0.32;;;;;;;;;;6158151;23;20001;-93
2023/02/19 04:20:52;;;;;;;0.73;0.30;;;;;;;;;;6157821;23;20015;-92
2023/02/19 04:23:20;;;;;;;1.20;0.57;;;;;;;;;;6157687;23;20488;-94
2023/02/19 04:25:48;;;;;;;1.20;0.47;;;;;;;;;;6157955;23;20013;-93
2023/02/19 04:28:15;;;;;;;1.10;0.57;;;;;;;;;;6162700;23;20084;-95
2023/02/19 04:30:42;;;;;;;1.63;0.50;;;;;;;;;;6182710;23;20009;-95
2023/02/19 04:33:08;;;;;;;1.02;0.50;;;;;;;;;;6187689;23;20404;-93
2023/02/19 04:35:34;;;;;;;1.85;0.60;;;;;;;;;;6213028;23;20107;-92
2023/02/19 04:38:00;;;;;;;1.58;0.70;;;;;;;;;;6213688;23;20001;-94
2023/02/19 04:40:27;;;;;;;1.00;0.60;;;;;;;;;;6212912;23;20004;-93
2023/02/19 04:42:56;;;;;;;1.73;1.00;;;;;;;;;;6212645;23;20453;-93
2023/02/19 04:45:22;;;;;;;4.15;2.03;;;;;;;;;;6212340;23;20016;-94
2023/02/19 04:47:48;;;;;;;3.88;2.38;;;;;;;;;;6212437;23;20000;-95
2023/02/19 04:50:14;;;;;;;4.32;2.38;;;;;;;;;;6213056;23;20008;-94
2023/02/19 04:52:40;;;;;;;3.83;2.30;;;;;;;;;;6212085;23;20000;-93
2023/02/19 04:55:07;;;;;;;4.63;2.75;;;;;;;;;;6212665;23;20005;-94
2023/02/19 04:57:34;;;;;;;4.32;2.58;;;;;;;;;;6212305;23;20008;-94
2023/02/19 05:00:00;;;;;;;2.60;1.85;;;;;;;;;;6212444;23;20004;-94
2023/02/19 05:02:27;;;;;;;2.38;1.23;;;;;;;;;;6212550;23;20052;-94
2023/02/19 05:04:53;;;;;;;1.42;0.75;;;;;;;;;;6212964;23;20008;-92
2023/02/19 05:07:19;;;;;;;2.13;1.10;;;;;;;;;;6212418;23;20001;-93
2023/02/19 05:09:45;;;;;;;2.20;1.30;;;;;;;;;;6212319;23;20019;-93
2023/02/19 05:12:11;;;;;;;2.03;1.38;;;;;;;;;;6212656;23;20000;-92
2023/02/19 05:14:37;;;;;;;2.65;1.70;;;;;;;;;;6212438;23;20467;-92
2023/02/19 05:17:03;;;;;;;2.20;1.30;;;;;;;;;;6212624;23;20005;-93
2023/02/19 05:19:29;;;;;;;2.67;1.00;;;;;;;;;;6212509;23;20015;-93
2023/02/19 05:21:55;;;;;;;1.30;0.80;;;;;;;;;;6212600;23;20076;-93
2023/02/19 05:24:23;;;;;;;1.55;0.90;;;;;;;;;;6212104;23;20028;-92
2023/02/19 05:26:49;;;;;;;2.72;0.90;;;;;;;;;;6212278;23;20000;-93
2023/02/19 05:29:15;;;;;;;1.80;0.90;;;;;;;;;;6190248;23;20028;-93
2023/02/19 05:31:41;;;;;;;1.50;0.80;;;;;;;;;;6157765;23;20076;-92
2023/02/19 05:34:08;;;;;;;1.95;0.70;;;;;;;;;;6158010;23;20009;-94
2023/02/19 05:36:35;;;;;;;1.50;0.65;;;;;;;;;;6157290;23;20092;-93
2023/02/19 05:39:02;;;;;;;1.20;0.70;;;;;;;;;;6179078;23;20005;-95
2023/02/19 05:41:29;;;;;;;1.20;0.57;;;;;;;;;;6187333;23;20338;-95
2023/02/19 05:43:56;;;;;;;0.98;0.40;;;;;;;;;;6188222;23;20016;-93
2023/02/19 05:46:24;;;;;;;1.60;0.50;;;;;;;;;;6187679;23;20005;-95
2023/02/19 05:48:50;;;;;;;2.40;0.70;;;;;;;;;;6187251;23;20071;-94
2023/02/19 05:51:17;;;;;;;1.95;0.93;;;;;;;;;;6187384;23;20008;-95
2023/02/19 05:53:44;;;;;;;2.17;0.90;;;;;;;;;;6187869;23;20415;-93
2023/02/19 05:56:36;;;;;;;1.23;0.70;;;;;;;;;;6187441;23;20024;-94
2023/02/19 05:59:33;;;;;;;1.42;0.98;;;;;;;;;;6181773;23;20335;-92
2023/02/19 06:05:03;;;;;;;1.65;0.93;;;;;;;;;;6212944;23;20011;-95
2023/02/19 06:07:30;;;;;;;1.52;1.00;;;;;;;;;;6187026;23;20005;-95
2023/02/19 06:09:56;;;;;;;1.75;1.08;;;;;;;;;;6188997;23;20020;-94
2023/02/19 06:12:22;;;;;;;2.92;1.10;;;;;;;;;;6189073;23;20075;-96
2023/02/19 06:14:49;;;;;;;2.45;1.50;;;;;;;;;;6189208;23;20410;-92
2023/02/19 06:17:15;;;;;;;2.55;1.35;;;;;;;;;;6189685;23;20042;-94
2023/02/19 06:19:41;;;;;;;2.75;1.33;;;;;;;;;;6190475;23;20005;-96
2023/02/19 06:22:08;;;;;;;3.25;1.38;;;;;;;;;;6190324;23;20015;-95
2023/02/19 06:24:36;;;;;;;2.30;1.70;;;;;;;;;;6188964;23;20009;-94
2023/02/19 06:27:05;;;;;;;2.95;1.70;;;;;;;;;;6189268;23;20084;-94
2023/02/19 06:29:31;;;;;;;2.17;1.60;;;;;;;;;;6163181;23;20021;-95
2023/02/19 06:31:58;;;;;;;3.35;1.77;;;;;;;;;;6159335;23;20001;-93
2023/02/19 06:34:24;;;;;;;2.83;2.10;;;;;;;;;;6159150;23;20013;-93
2023/02/19 06:36:50;;;;;;;2.42;1.92;;;;;;;;;;6159126;23;20009;-94
2023/02/19 06:39:17;;;;;;;3.42;2.80;;;;;;;;;;6158820;23;20430;-94
2023/02/19 06:41:46;;;;;;;3.50;2.30;;;;;;;;;;6158157;23;20363;-94
2023/02/19 06:44:12;;;;;;;2.95;2.40;;;;;;;;;;6158877;23;20007;-93
2023/02/19 06:46:38;;;;;;;3.05;2.42;;;;;;;;;;6159415;23;20071;-94
2023/02/19 06:49:05;;;;;;;3.83;2.55;;;;;;;;;;6159065;23;20005;-94
2023/02/19 06:51:31;;;;;;;3.90;2.72;;;;;;;;;;6158561;23;20001;-93
2023/02/19 06:53:58;;;;;;;3.25;2.38;;;;;;;;;;6158843;23;20041;-93
2023/02/19 06:56:32;;;;;;;3.33;2.88;;;;;;;;;;6158701;23;20016;-94
2023/02/19 06:59:02;;;;;;;3.92;3.13;;;;;;;;;;6163757;23;20001;-95
2023/02/19 07:01:30;;;;;;;3.63;3.03;;;;;;;;;;6166995;23;20044;-94
2023/02/19 07:03:56;;;;;;;4.45;3.67;;;;;;;;;;6161895;23;20005;-94
2023/02/19 07:06:25;;;;;;;4.97;3.88;;;;;;;;;;6162068;23;20009;-96
2023/02/19 07:08:51;;;;;;;6.25;4.68;;;;;;;;;;6162542;23;20039;-95
2023/02/19 07:11:18;;;;;;;6.13;4.40;;;;;;;;;;6162290;23;20056;-95
2023/02/19 07:13:57;;;;;;;5.45;4.00;;;;;;;;;;6174100;23;20009;-96
2023/02/19 07:16:23;;;;;;;5.75;3.92;;;;;;;;;;6168075;23;20084;-93
2023/02/19 07:21:44;;;;;;;5.70;4.20;;;;;;;;;;6195091;23;20016;-96
2023/02/19 07:24:24;;;;;;;4.15;3.10;;;;;;;;;;6167758;23;20005;-96
2023/02/19 08:05:45;;;;;;;4.13;3.38;;;;;;;;;;6159983;23;20076;-96
2023/02/19 08:08:22;;;;;;;3.42;2.55;;;;;;;;;;6160578;23;20334;-95
2023/02/19 08:13:45;;;;;;;3.63;2.50;;;;;;;;;;6248168;23;20024;-96
2023/02/19 08:24:44;;;;;;;4.13;2.53;;;;;;;;;;6219517;23;20015;-95
2023/02/19 08:27:10;;;;;;;3.15;2.58;;;;;;;;;;6191682;23;20028;-95
2023/02/19 08:50:11;;;;;;;3.53;1.52;;;;;;;;;;6197739;23;20051;-94
2023/02/19 08:55:44;;;;;;;3.13;1.40;;;;;;;;;;6215266;23;20115;-96
2023/02/19 10:24:59;;;;;;;0.70;0.32;;;;;;;;;;6194461;23;20024;-95
2023/02/19 11:18:58;;;;;;;1.17;0.40;;;;;;;;;;6198616;23;20111;-96
2023/02/19 11:32:37;;;;;;;1.25;0.30;;;;;;;;;;6170148;23;20268;-95
2023/02/19 11:38:29;;;;;;;2.47;0.40;;;;;;;;;;6203191;23;20031;-95
2023/02/19 11:46:35;;;;;;;1.10;0.40;;;;;;;;;;6161313;23;20911;-93
2023/02/19 11:58:23;;;;;;;0.85;0.38;;;;;;;;;;6219763;23;20023;-96
2023/02/19 12:04:11;;;;;;;1.23;0.50;;;;;;;;;;6222288;23;20108;-96
2023/02/19 12:14:52;;;;;;;0.93;0.22;;;;;;;;;;6208469;23;20054;-93
2023/02/19 12:20:34;;;;;;;1.33;0.30;;;;;;;;;;6217099;23;20014;-92
2023/02/19 12:23:19;;;;;;;0.77;0.28;;;;;;;;;;6190161;23;20028;-93
2023/02/19 12:25:48;;;;;;;4.03;0.40;;;;;;;;;;6193445;23;20068;-95
2023/02/19 12:28:52;;;;;;;0.90;0.30;;;;;;;;;;6198001;23;20004;-96
2023/02/19 12:44:12;;;;;;;0.90;0.30;;;;;;;;;;6077342;23;20519;-94
2023/02/19 12:49:45;;;;;;;1.48;0.30;;;;;;;;;;6135291;23;20511;-96
2023/02/19 12:58:13;;;;;;;2.47;0.45;;;;;;;;;;6198004;22;20024;-96
2023/02/19 13:03:33;;;;;;;1.10;0.40;;;;;;;;;;6173684;23;20021;-95
2023/02/19 13:11:36;;;;;;;1.00;0.32;;;;;;;;;;6195688;23;20108;-96
2023/02/19 13:20:29;;;;;;;1.48;0.45;;;;;;;;;;6261020;22;20093;-95
2023/02/19 13:26:25;;;;;;;;;;;;;;;;;;;;;
2023/02/19 13:34:47;;;;;;;1.10;0.28;;;;;;;;;;6232559;23;20024;-95
2023/02/19 13:45:52;;;;;;;1.33;0.40;;;;;;;;;;6207744;23;20035;-94
2023/02/19 13:51:22;;;;;;;1.65;0.90;;;;;;;;;;6181636;23;20021;-96
2023/02/19 14:23:29;;;;;;;2.45;0.57;;;;;;;;;;6211807;23;20031;-93
2023/02/19 14:26:07;;;;;;;2.15;0.70;;;;;;;;;;6196266;23;20131;-93
2023/02/19 14:29:15;;;;;;;1.20;0.50;;;;;;;;;;6207209;23;20004;-92
2023/02/19 14:32:01;;;;;;;0.95;0.40;;;;;;;;;;6135123;23;20068;-92
2023/02/19 14:34:45;;;;;;;1.30;0.40;;;;;;;;;;6105794;23;20021;-93
2023/02/19 14:40:37;;;;;;;0.80;0.30;;;;;;;;;;6132079;23;20029;-95
2023/02/19 14:43:08;;;;;;;0.80;0.30;;;;;;;;;;6154164;23;20020;-94
2023/02/19 14:45:39;;;;;;;2.08;0.40;;;;;;;;;;6192533;23;20015;-94
2023/02/19 14:53:49;;;;;;;1.23;0.40;;;;;;;;;;6210837;23;20095;-96
2023/02/19 14:56:34;;;;;;;0.40;0.20;;;;;;;;;;6194607;23;20013;-96
2023/02/19 15:02:15;;;;;;;2.20;0.37;;;;;;;;;;6221972;23;20008;-93
2023/02/19 15:05:06;;;;;;;0.60;0.30;;;;;;;;;;6195242;23;20442;-95
2023/02/19 15:07:51;;;;;;;0.90;0.40;;;;;;;;;;6192286;23;20028;-93
2023/02/19 17:24:54;;;;;;;2.60;1.20;;;;;;;;;;6186185;23;20032;-95
2023/02/19 17:49:54;;;;;;;2.55;1.60;;;;;;;;;;6197608;22;20035;-95
2023/02/19 18:30:01;;;;;;;2.28;0.90;;;;;;;;;;6193487;22;20036;-95
2023/02/19 18:32:36;;;;;;;1.77;0.90;;;;;;;;;;6199103;23;20127;-95
2023/02/19 18:35:49;;;;;;;1.75;1.00;;;;;;;;;;6202040;23;20020;-96
2023/02/19 18:38:18;;;;;;;2.08;1.00;;;;;;;;;;6202073;23;20115;-96
2023/02/19 18:40:47;;;;;;;1.67;0.90;;;;;;;;;;6196468;23;20004;-95
2023/02/19 18:43:22;;;;;;;2.03;1.00;;;;;;;;;;6200187;23;20004;-94
2023/02/19 18:45:52;;;;;;;3.08;1.08;;;;;;;;;;6198819;23;20066;-95
2023/02/19 18:48:36;;;;;;;2.15;0.98;;;;;;;;;;6201422;23;20008;-96
2023/02/19 18:51:09;;;;;;;3.88;1.10;;;;;;;;;;6194020;23;20064;-95
2023/02/19 18:53:35;;;;;;;1.92;1.27;;;;;;;;;;6194130;23;20005;-94
2023/02/19 18:56:08;;;;;;;1.95;1.00;;;;;;;;;;6219282;23;20017;-94
2023/02/19 18:58:36;;;;;;;2.53;1.23;;;;;;;;;;6193447;23;20008;-94
2023/02/19 19:01:05;;;;;;;1.98;1.27;;;;;;;;;;6194997;23;20004;-93
2023/02/19 19:03:31;;;;;;;3.45;1.52;;;;;;;;;;6192205;23;20005;-93
2023/02/19 19:06:00;;;;;;;1.98;1.35;;;;;;;;;;6191493;23;20565;-94
2023/02/19 19:08:28;;;;;;;2.30;1.40;;;;;;;;;;6191914;23;20008;-92
2023/02/19 19:11:00;;;;;;;2.42;1.40;;;;;;;;;;6192175;23;20015;-90
2023/02/19 19:14:36;;;;;;;2.00;1.15;;;;;;;;;;6192225;23;20005;-94
2023/02/19 19:16:36;;;;;;;2.78;1.48;;;;;;;;;;6201777;23;20023;-94
2023/02/19 19:19:07;;;;;;;2.30;1.25;;;;;;;;;;6218630;23;20146;-94
2023/02/19 19:21:33;;;;;;;2.20;1.30;;;;;;;;;;6190713;23;20008;-90
2023/02/19 19:23:59;;;;;;;3.25;1.27;;;;;;;;;;6190847;23;20067;-92
2023/02/19 19:26:26;;;;;;;2.30;1.20;;;;;;;;;;6190144;23;20001;-95
2023/02/19 19:28:52;;;;;;;3.10;1.33;;;;;;;;;;6190775;23;20088;-93
2023/02/19 19:31:18;;;;;;;3.00;1.67;;;;;;;;;;6191015;23;20048;-93
2023/02/19 19:33:46;;;;;;;4.30;1.67;;;;;;;;;;6191243;23;20445;-91
2023/02/19 19:36:13;;;;;;;2.30;1.15;;;;;;;;;;6192706;23;20017;-90
2023/02/19 19:38:40;;;;;;;2.50;1.10;;;;;;;;;;6188771;23;20005;-92
2023/02/19 19:41:06;;;;;;;3.55;1.27;;;;;;;;;;6188729;23;20411;-91
2023/02/19 19:43:33;;;;;;;2.80;1.25;;;;;;;;;;6190403;23;20000;-91
2023/02/19 19:45:59;;;;;;;4.05;1.33;;;;;;;;;;6189998;23;20062;-91
2023/02/19 19:48:29;;;;;;;7.50;1.27;;;;;;;;;;6190349;23;20000;-93
2023/02/19 19:50:55;;;;;;;4.07;1.20;;;;;;;;;;6189815;23;20450;-92
2023/02/19 19:53:22;;;;;;;2.25;1.05;;;;;;;;;;6190931;23;20098;-92
2023/02/19 19:58:52;;;;;;;1.80;1.08;;;;;;;;;;6216679;22;20024;-93
2023/02/19 20:04:28;;;;;;;5.95;1.35;;;;;;;;;;6216402;22;20032;-96
2023/02/19 20:06:54;;;;;;;3.85;1.20;;;;;;;;;;6166751;23;20032;-94
2023/02/19 20:09:24;;;;;;;2.90;1.00;;;;;;;;;;6191358;23;20083;-93
2023/02/19 20:11:53;;;;;;;2.60;1.15;;;;;;;;;;6191031;23;20032;-94
2023/02/19 20:14:22;;;;;;;3.30;1.27;;;;;;;;;;6191650;23;20007;-94
2023/02/19 20:16:49;;;;;;;3.60;1.52;;;;;;;;;;6191118;23;20430;-96
2023/02/19 20:19:21;;;;;;;4.43;1.42;;;;;;;;;;6191180;23;20000;-95
2023/02/19 20:21:48;;;;;;;4.18;1.42;;;;;;;;;;6191273;23;20024;-95
2023/02/19 20:24:21;;;;;;;2.42;1.10;;;;;;;;;;6191521;23;20405;-95
2023/02/19 20:26:57;;;;;;;2.60;1.10;;;;;;;;;;6192853;23;20382;-96
2023/02/19 20:29:23;;;;;;;4.88;1.27;;;;;;;;;;6191126;23;20091;-94
2023/02/19 20:32:08;;;;;;;2.92;1.10;;;;;;;;;;6190912;23;20005;-96
2023/02/19 20:34:54;;;;;;;3.92;1.70;;;;;;;;;;6191558;23;20008;-96
2023/02/19 20:37:50;;;;;;;;;;;;;;;;;;;;;
2023/02/19 20:40:17;;;;;;;3.58;1.33;;;;;;;;;;6205148;23;20087;-94
2023/02/19 20:46:07;;;;;;;4.03;1.80;;;;;;;;;;6192707;23;20092;-96
2023/02/19 20:48:33;;;;;;;2.35;0.88;;;;;;;;;;6192504;23;20419;-96
2023/02/19 20:51:02;;;;;;;2.55;1.00;;;;;;;;;;6194896;23;20056;-95
2023/02/19 20:53:31;;;;;;;2.35;0.90;;;;;;;;;;6193792;23;20005;-95
2023/02/19 20:56:06;;;;;;;2.97;0.82;;;;;;;;;;6194343;23;20337;-96
2023/02/19 20:58:35;;;;;;;3.08;0.93;;;;;;;;;;6192407;23;20007;-95
2023/02/19 21:01:04;;;;;;;3.97;0.80;;;;;;;;;;6192248;23;20035;-95
2023/02/19 21:03:34;;;;;;;3.08;0.70;;;;;;;;;;6191096;23;20001;-96
2023/02/19 21:06:03;;;;;;;1.45;0.68;;;;;;;;;;6192393;23;20010;-95
2023/02/19 21:08:29;;;;;;;3.17;0.75;;;;;;;;;;6191208;23;20011;-94
2023/02/19 21:10:58;;;;;;;2.70;0.88;;;;;;;;;;6191460;23;20012;-94
2023/02/19 21:13:28;;;;;;;2.38;0.70;;;;;;;;;;6192237;23;20035;-95
2023/02/19 21:15:54;;;;;;;2.83;1.08;;;;;;;;;;6191977;23;20013;-95
2023/02/19 21:18:20;;;;;;;1.85;0.73;;;;;;;;;;6192589;23;20000;-95
2023/02/19 21:20:49;;;;;;;2.75;0.80;;;;;;;;;;6190064;23;20039;-95
2023/02/19 21:23:15;;;;;;;2.03;0.73;;;;;;;;;;6189468;23;20024;-95
2023/02/19 21:25:44;;;;;;;2.53;0.85;;;;;;;;;;6190469;23;20036;-95
2023/02/19 21:28:13;;;;;;;2.22;0.70;;;;;;;;;;6189923;23;20008;-96
2023/02/19 21:30:39;;;;;;;1.75;0.55;;;;;;;;;;6190297;23;20012;-93
2023/02/19 21:33:08;;;;;;;3.17;0.73;;;;;;;;;;6191306;23;20023;-95
2023/02/19 21:35:34;;;;;;;2.03;0.82;;;;;;;;;;6190624;23;20434;-96
2023/02/19 21:38:00;;;;;;;6.07;1.30;;;;;;;;;;6189504;23;20005;-95
2023/02/19 21:40:31;;;;;;;4.63;1.50;;;;;;;;;;6189848;23;20009;-94
2023/02/19 21:43:03;;;;;;;13.60;4.15;;;;;;;;;;6190668;23;20009;-93
2023/02/19 21:45:29;;;;;;;4.97;1.70;;;;;;;;;;6190143;23;20083;-93
2023/02/19 21:48:01;;;;;;;5.18;1.65;;;;;;;;;;6190372;23;20032;-96
2023/02/19 21:50:27;;;;;;;11.73;4.00;;;;;;;;;;6188736;23;20001;-95
2023/02/19 21:52:54;;;;;;;11.27;5.03;;;;;;;;;;6190804;23;20008;-94
2023/02/19 21:55:23;;;;;;;8.05;4.28;;;;;;;;;;6189250;23;20013;-94
2023/02/19 21:57:49;;;;;;;8.13;5.68;;;;;;;;;;6188842;23;20005;-93
2023/02/19 22:00:15;;;;;;;5.63;2.65;;;;;;;;;;6190564;23;20334;-93
2023/02/19 22:02:42;;;;;;;3.92;1.20;;;;;;;;;;6189605;23;20020;-94
2023/02/19 22:05:11;;;;;;;6.35;1.75;;;;;;;;;;6188685;23;20027;-95
2023/02/19 22:07:37;;;;;;;5.18;1.70;;;;;;;;;;6190042;23;20020;-95
2023/02/19 22:10:04;;;;;;;5.80;2.10;;;;;;;;;;6189136;23;20122;-95
2023/02/19 22:12:32;;;;;;;6.03;2.10;;;;;;;;;;6189557;23;20338;-95
2023/02/19 22:14:59;;;;;;;5.72;1.95;;;;;;;;;;6190337;23;20100;-94
2023/02/19 22:17:25;;;;;;;4.55;1.63;;;;;;;;;;6190087;23;20027;-96
2023/02/19 22:20:06;;;;;;;3.83;1.70;;;;;;;;;;6189543;23;20442;-96
2023/02/19 22:22:33;;;;;;;4.55;1.17;;;;;;;;;;6189334;23;20015;-96
2023/02/19 22:25:17;;;;;;;2.53;1.17;;;;;;;;;;6191335;23;20001;-96
2023/02/19 22:27:43;;;;;;;3.75;1.20;;;;;;;;;;6192637;23;20008;-95
2023/02/19 22:30:14;;;;;;;2.00;0.75;;;;;;;;;;6190545;23;20004;-95
2023/02/19 22:32:41;;;;;;;3.15;0.80;;;;;;;;;;6190502;23;20078;-96
2023/02/19 22:35:07;;;;;;;3.22;0.85;;;;;;;;;;6190818;23;20374;-94
2023/02/19 22:37:36;;;;;;;3.55;1.00;;;;;;;;;;6189354;23;20019;-96
2023/02/19 22:46:24;;;;;;;4.35;1.17;;;;;;;;;;6216967;23;20028;-95
2023/02/19 22:48:53;;;;;;;3.55;0.95;;;;;;;;;;6190226;23;20004;-95
2023/02/19 22:51:21;;;;;;;2.10;0.80;;;;;;;;;;6192240;23;20000;-95
2023/02/19 22:53:48;;;;;;;3.85;1.10;;;;;;;;;;6192808;23;20012;-95
2023/02/19 22:56:21;;;;;;;4.03;1.00;;;;;;;;;;6192839;23;20044;-96
2023/02/19 22:59:08;;;;;;;3.28;0.80;;;;;;;;;;6192960;23;20311;-96
2023/02/19 23:01:34;;;;;;;3.03;1.00;;;;;;;;;;6192416;23;20001;-95
2023/02/19 23:04:00;;;;;;;4.95;1.40;;;;;;;;;;6193338;23;20009;-94
2023/02/19 23:06:31;;;;;;;4.22;1.00;;;;;;;;;;6192011;23;20001;-96
2023/02/19 23:09:09;;;;;;;3.80;1.08;;;;;;;;;;6191922;23;20334;-95
2023/02/19 23:11:37;;;;;;;2.85;0.95;;;;;;;;;;6191620;23;20032;-95
2023/02/19 23:14:06;;;;;;;2.85;1.00;;;;;;;;;;6191468;23;20036;-94
2023/02/19 23:16:34;;;;;;;3.22;1.08;;;;;;;;;;6191921;23;20020;-95
2023/02/19 23:19:04;;;;;;;4.50;1.30;;;;;;;;;;6188176;23;20039;-95
2023/02/19 23:21:30;;;;;;;4.93;1.58;;;;;;;;;;6192436;23;20043;-95
2023/02/19 23:24:03;;;;;;;5.18;1.30;;;;;;;;;;6191551;23;20035;-95
2023/02/19 23:26:29;;;;;;;4.18;1.17;;;;;;;;;;6192790;23;20011;-95
2023/02/19 23:28:56;;;;;;;3.85;1.10;;;;;;;;;;6191833;23;20000;-94
2023/02/19 23:31:24;;;;;;;5.05;1.42;;;;;;;;;;6189422;23;20019;-95
2023/02/19 23:33:56;;;;;;;5.55;1.58;;;;;;;;;;6194041;23;20005;-94
2023/02/19 23:36:23;;;;;;;3.50;1.23;;;;;;;;;;6192625;23;20017;-95
2023/02/19 23:38:58;;;;;;;3.75;1.20;;;;;;;;;;6192494;23;20011;-94
2023/02/19 23:41:24;;;;;;;4.07;1.20;;;;;;;;;;6193099;23;20015;-94
2023/02/19 23:43:54;;;;;;;7.07;1.17;;;;;;;;;;6186611;23;20017;-95
2023/02/19 23:46:20;;;;;;;3.85;1.25;;;;;;;;;;6187300;23;20037;-95
2023/02/19 23:48:46;;;;;;;5.07;1.20;;;;;;;;;;6186926;23;20009;-95
2023/02/19 23:51:12;;;;;;;6.07;1.40;;;;;;;;;;6186802;23;20012;-95
2023/02/19 23:53:42;;;;;;;7.25;1.67;;;;;;;;;;6187496;23;20012;-95
2023/02/19 23:56:08;;;;;;;5.20;1.60;;;;;;;;;;6187403;23;20049;-95
2023/02/19 23:58:34;;;;;;;4.88;1.30;;;;;;;;;;6188238;23;20482;-94
